Time;durP1;ratioP1;P1;durP2;ratioP2;P2;SDS_P1;SDS_P2;PMS_P1;PMS_P2;Temp;Humidity;BMP_temperature;BMP_pressure;BME280_temperature;BME280_humidity;BME280_pressure;Samples;Min_cycle;Max_cycle;Signal;HPM_P1;HPM_P2
2023/08/27 00:00:43;;;;;;;1.50;1.40;;;19.30;99.90;;;;;;5026373;28;20247;-73
2023/08/27 00:03:09;;;;;;;2.97;1.73;;;19.40;99.90;;;;;;5029641;28;20219;-73
2023/08/27 00:05:42;;;;;;;2.10;1.73;;;19.30;99.90;;;;;;5026390;28;20385;-73
2023/08/27 00:08:07;;;;;;;1.50;1.40;;;19.20;99.90;;;;;;5025230;28;20792;-73
2023/08/27 00:10:33;;;;;;;1.97;1.87;;;19.30;99.90;;;;;;5026109;28;21190;-73
2023/08/27 00:12:59;;;;;;;2.50;1.57;;;19.30;99.90;;;;;;5012135;28;20697;-74
2023/08/27 00:15:24;;;;;;;2.53;1.80;;;19.30;99.90;;;;;;5043402;28;20241;-73
2023/08/27 00:17:50;;;;;;;1.80;1.70;;;19.30;99.90;;;;;;5058125;28;20346;-74
2023/08/27 00:20:17;;;;;;;1.20;1.20;;;19.30;99.90;;;;;;5025808;28;20219;-73
2023/08/27 00:22:43;;;;;;;1.83;1.33;;;19.20;99.90;;;;;;5016224;28;20671;-74
2023/08/27 00:25:09;;;;;;;1.70;1.60;;;18.90;99.90;;;;;;5028446;28;20557;-73
2023/08/27 00:27:34;;;;;;;1.70;1.60;;;19.00;99.90;;;;;;5029190;28;20462;-73
2023/08/27 00:30:04;;;;;;;1.50;1.40;;;19.10;99.90;;;;;;5027628;28;20306;-74
2023/08/27 00:32:33;;;;;;;1.60;1.50;;;19.10;99.90;;;;;;5024531;28;20220;-73
2023/08/27 00:34:59;;;;;;;2.07;1.87;;;19.10;99.90;;;;;;5041474;28;20470;-73
2023/08/27 00:37:25;;;;;;;2.43;2.00;;;19.10;99.90;;;;;;5026671;28;20466;-74
2023/08/27 00:39:51;;;;;;;1.90;1.70;;;19.10;99.90;;;;;;5043474;28;21117;-73
2023/08/27 00:42:17;;;;;;;2.20;2.00;;;19.10;99.90;;;;;;5008345;28;20220;-73
2023/08/27 00:44:43;;;;;;;2.10;2.00;;;19.10;99.90;;;;;;5044176;28;20505;-73
2023/08/27 00:47:10;;;;;;;2.53;1.90;;;19.10;99.90;;;;;;5012002;28;20291;-73
2023/08/27 00:49:37;;;;;;;2.33;2.23;;;19.00;99.90;;;;;;5010560;28;20830;-73
2023/08/27 00:52:04;;;;;;;2.30;2.10;;;18.90;99.90;;;;;;5029083;28;20478;-73
2023/08/27 00:54:31;;;;;;;2.63;2.20;;;18.80;99.90;;;;;;5026334;28;20462;-73
2023/08/27 00:56:57;;;;;;;1.63;1.53;;;18.90;99.90;;;;;;5040848;28;21174;-73
2023/08/27 00:59:23;;;;;;;1.60;1.50;;;18.90;99.90;;;;;;5043716;28;20516;-73
2023/08/27 01:01:48;;;;;;;1.90;1.50;;;18.90;99.90;;;;;;5026756;28;20466;-72
2023/08/27 01:04:14;;;;;;;1.93;1.40;;;18.90;99.90;;;;;;5028410;28;20662;-73
2023/08/27 01:06:40;;;;;;;1.50;1.40;;;19.00;99.90;;;;;;5027975;28;20249;-73
2023/08/27 01:09:24;;;;;;;1.80;1.70;;;18.90;99.90;;;;;;5012600;28;20296;-73
2023/08/27 01:12:41;;;;;;;1.40;1.30;;;18.90;99.90;;;;;;5026917;28;20481;-73
2023/08/27 01:15:08;;;;;;;1.73;1.63;;;18.90;99.90;;;;;;4939465;28;20542;-72
2023/08/27 01:17:35;;;;;;;1.50;1.40;;;18.90;99.90;;;;;;4934358;28;21241;-72
2023/08/27 01:20:05;;;;;;;1.73;1.60;;;18.90;99.90;;;;;;4983833;28;20571;-73
2023/08/27 01:22:31;;;;;;;1.23;1.20;;;18.80;99.90;;;;;;5028917;28;20504;-73
2023/08/27 01:24:56;;;;;;;4.60;1.80;;;18.90;99.90;;;;;;5042495;28;20586;-73
2023/08/27 01:27:29;;;;;;;2.30;1.27;;;18.90;99.90;;;;;;5044233;28;20216;-73
2023/08/27 01:30:13;;;;;;;2.40;1.70;;;18.80;99.90;;;;;;5030487;28;20520;-73
2023/08/27 01:32:47;;;;;;;2.40;1.97;;;18.80;99.90;;;;;;5042586;28;20470;-73
2023/08/27 01:35:15;;;;;;;1.53;1.40;;;18.70;99.90;;;;;;5024288;28;20465;-73
2023/08/27 01:37:41;;;;;;;1.00;1.00;;;18.70;99.90;;;;;;5030984;28;20457;-73
2023/08/27 01:40:08;;;;;;;3.70;1.80;;;18.70;99.90;;;;;;5029999;28;20466;-73
2023/08/27 01:42:37;;;;;;;4.13;1.60;;;18.70;99.90;;;;;;5017654;28;20454;-73
2023/08/27 01:45:06;;;;;;;1.60;1.50;;;18.70;99.90;;;;;;5012639;28;20498;-72
2023/08/27 01:47:32;;;;;;;1.80;1.50;;;18.70;99.90;;;;;;5058613;27;20493;-74
2023/08/27 01:49:57;;;;;;;4.03;1.70;;;18.70;99.90;;;;;;5042899;28;20482;-73
2023/08/27 01:52:23;;;;;;;1.87;1.77;;;18.70;99.90;;;;;;5027425;28;20336;-73
2023/08/27 01:54:49;;;;;;;1.37;1.27;;;18.70;99.90;;;;;;5013544;28;20786;-72
2023/08/27 01:57:14;;;;;;;3.30;1.53;;;18.70;99.90;;;;;;5028562;28;20222;-73
2023/08/27 01:59:40;;;;;;;1.70;1.60;;;18.60;99.90;;;;;;5011346;28;20300;-73
2023/08/27 02:02:07;;;;;;;1.63;1.53;;;18.50;99.90;;;;;;5030086;28;20223;-72
2023/08/27 02:04:33;;;;;;;2.17;1.53;;;18.40;99.90;;;;;;5027613;28;20469;-73
2023/08/27 02:06:59;;;;;;;1.80;1.40;;;18.50;99.90;;;;;;5011293;28;20348;-73
2023/08/27 02:09:25;;;;;;;5.40;1.60;;;18.50;99.90;;;;;;5028820;28;20466;-73
2023/08/27 02:11:52;;;;;;;1.57;1.47;;;18.50;99.90;;;;;;5033017;28;20870;-73
2023/08/27 02:14:18;;;;;;;1.70;1.60;;;18.50;99.90;;;;;;5041994;28;20515;-73
2023/08/27 02:16:44;;;;;;;1.80;1.67;;;18.40;99.90;;;;;;5029092;28;20478;-73
2023/08/27 02:19:10;;;;;;;2.17;1.67;;;18.30;99.90;;;;;;5028955;28;20273;-73
2023/08/27 02:21:35;;;;;;;2.00;1.80;;;18.40;99.90;;;;;;5044480;28;20251;-72
2023/08/27 02:24:01;;;;;;;2.33;1.80;;;18.50;99.90;;;;;;5042693;28;20218;-72
2023/08/27 02:26:27;;;;;;;2.10;1.87;;;18.50;99.90;;;;;;5028492;28;20670;-73
2023/08/27 02:28:54;;;;;;;1.67;1.57;;;18.50;99.90;;;;;;5056439;28;20235;-73
2023/08/27 02:31:20;;;;;;;2.10;1.67;;;18.50;99.90;;;;;;5042003;28;20223;-73
2023/08/27 02:33:45;;;;;;;2.63;2.03;;;18.40;99.90;;;;;;5027638;28;20476;-73
2023/08/27 02:36:11;;;;;;;1.60;1.50;;;18.50;99.90;;;;;;5042435;28;20224;-72
2023/08/27 02:38:37;;;;;;;1.50;1.40;;;18.50;99.90;;;;;;5027900;28;20220;-72
2023/08/27 02:41:03;;;;;;;1.53;1.43;;;18.50;99.90;;;;;;5022858;28;21090;-72
2023/08/27 02:43:29;;;;;;;2.03;1.40;;;18.40;99.90;;;;;;5010793;28;20887;-73
2023/08/27 02:45:54;;;;;;;2.93;1.50;;;18.40;99.90;;;;;;5046375;28;20252;-73
2023/08/27 02:48:20;;;;;;;1.50;1.40;;;18.30;99.90;;;;;;5042773;28;20248;-70
2023/08/27 02:50:46;;;;;;;2.80;1.40;;;18.30;99.90;;;;;;5039857;28;20762;-73
2023/08/27 02:53:11;;;;;;;4.03;1.80;;;18.10;99.90;;;;;;5029322;28;20223;-73
2023/08/27 02:55:37;;;;;;;2.00;1.90;;;18.10;99.90;;;;;;5011731;28;20866;-73
2023/08/27 02:58:03;;;;;;;2.77;1.80;;;18.00;99.90;;;;;;5030467;28;20465;-74
2023/08/27 03:00:30;;;;;;;2.10;1.70;;;17.90;99.90;;;;;;5012621;28;20230;-74
2023/08/27 03:02:56;;;;;;;1.80;1.70;;;17.90;99.90;;;;;;5033626;28;20468;-74
2023/08/27 03:05:22;;;;;;;1.50;1.40;;;17.90;99.90;;;;;;5045246;28;20454;-73
2023/08/27 03:07:48;;;;;;;4.17;1.70;;;18.10;99.90;;;;;;5033471;28;20270;-74
2023/08/27 03:10:14;;;;;;;1.77;1.67;;;18.10;99.90;;;;;;5032704;28;20219;-73
2023/08/27 03:12:40;;;;;;;3.20;2.23;;;18.20;99.90;;;;;;5045038;28;20379;-73
2023/08/27 03:15:06;;;;;;;2.10;2.00;;;18.20;99.90;;;;;;5031734;28;20979;-74
2023/08/27 03:17:32;;;;;;;2.43;2.23;;;18.20;99.90;;;;;;5031420;28;20220;-74
2023/08/27 03:19:58;;;;;;;2.53;1.80;;;18.10;99.90;;;;;;5046245;28;20470;-73
2023/08/27 03:22:24;;;;;;;1.60;1.50;;;18.10;99.90;;;;;;5064263;27;20250;-73
2023/08/27 03:24:50;;;;;;;1.97;1.87;;;18.20;99.90;;;;;;5014141;28;20228;-74
2023/08/27 03:27:15;;;;;;;2.33;1.80;;;18.20;99.90;;;;;;5061853;28;20314;-73
2023/08/27 03:29:41;;;;;;;1.63;1.53;;;18.20;99.90;;;;;;5033575;28;20462;-73
2023/08/27 03:32:07;;;;;;;1.80;1.70;;;18.20;99.90;;;;;;5033217;28;21128;-73
2023/08/27 03:34:33;;;;;;;1.97;1.70;;;18.20;99.90;;;;;;5034035;28;20296;-73
2023/08/27 03:36:59;;;;;;;2.80;1.50;;;18.20;99.90;;;;;;5021745;28;20518;-73
2023/08/27 03:39:25;;;;;;;1.70;1.60;;;18.20;99.90;;;;;;5018661;28;20238;-74
2023/08/27 03:41:51;;;;;;;2.37;2.17;;;18.20;99.90;;;;;;5030948;28;20224;-73
2023/08/27 03:44:16;;;;;;;3.30;1.70;;;18.20;99.90;;;;;;5045420;28;20216;-73
2023/08/27 03:46:42;;;;;;;2.10;1.90;;;18.20;99.90;;;;;;5044143;28;20394;-74
2023/08/27 03:49:08;;;;;;;1.97;1.87;;;18.20;99.90;;;;;;5029544;28;20216;-74
2023/08/27 03:51:33;;;;;;;2.27;1.70;;;18.20;99.90;;;;;;5059790;28;20333;-74
2023/08/27 03:54:00;;;;;;;1.73;1.63;;;18.20;99.90;;;;;;5049475;28;20342;-73
2023/08/27 03:56:26;;;;;;;1.73;1.63;;;18.20;99.90;;;;;;5031775;28;20219;-73
2023/08/27 03:58:52;;;;;;;1.63;1.53;;;18.10;99.90;;;;;;5043837;28;20592;-74
2023/08/27 04:01:18;;;;;;;3.00;1.90;;;18.10;99.90;;;;;;5031407;28;20458;-74
2023/08/27 04:03:45;;;;;;;2.40;1.80;;;18.10;99.90;;;;;;5061053;28;20228;-73
2023/08/27 04:06:11;;;;;;;1.83;1.73;;;18.10;99.90;;;;;;5045498;28;21199;-74
2023/08/27 04:08:37;;;;;;;3.33;3.10;;;18.10;99.90;;;;;;5031131;28;20795;-73
2023/08/27 04:11:04;;;;;;;3.23;1.93;;;18.10;99.90;;;;;;5030468;28;20219;-73
2023/08/27 04:13:30;;;;;;;1.93;1.83;;;18.10;99.90;;;;;;5047760;28;21162;-73
2023/08/27 04:16:02;;;;;;;1.40;1.30;;;18.00;99.90;;;;;;5030548;28;20471;-74
2023/08/27 04:18:29;;;;;;;2.50;2.30;;;18.00;99.90;;;;;;5012792;28;20470;-73
2023/08/27 04:20:55;;;;;;;1.90;1.80;;;18.00;99.90;;;;;;5055261;27;21086;-73
2023/08/27 04:23:21;;;;;;;7.13;2.27;;;18.00;99.90;;;;;;5057985;28;20462;-73
2023/08/27 04:25:47;;;;;;;1.83;1.73;;;17.90;99.90;;;;;;5030923;28;21121;-74
2023/08/27 04:28:13;;;;;;;2.67;1.90;;;17.90;99.90;;;;;;5045494;28;20222;-73
2023/08/27 04:30:39;;;;;;;2.50;1.77;;;17.90;99.90;;;;;;5029791;28;20455;-73
2023/08/27 04:33:05;;;;;;;2.73;1.90;;;17.90;99.90;;;;;;5031577;28;20466;-73
2023/08/27 04:35:31;;;;;;;1.83;1.73;;;17.80;99.90;;;;;;5031665;28;20329;-73
2023/08/27 04:37:57;;;;;;;1.70;1.60;;;17.80;99.90;;;;;;5031909;28;20226;-72
2023/08/27 04:40:23;;;;;;;1.93;1.73;;;17.80;99.90;;;;;;5060491;28;20376;-73
2023/08/27 04:42:49;;;;;;;1.63;1.53;;;17.70;99.90;;;;;;5030022;28;20463;-72
2023/08/27 04:45:14;;;;;;;1.70;1.60;;;17.70;99.90;;;;;;5041580;28;20224;-72
2023/08/27 04:47:41;;;;;;;1.70;1.60;;;17.70;99.90;;;;;;5052921;28;20219;-72
2023/08/27 04:50:08;;;;;;;1.90;1.60;;;17.70;99.90;;;;;;5058175;28;20223;-73
2023/08/27 04:52:37;;;;;;;2.83;1.23;;;17.60;99.90;;;;;;5028104;28;20535;-73
2023/08/27 04:55:06;;;;;;;1.73;1.50;;;17.50;99.90;;;;;;5027717;28;20547;-73
2023/08/27 04:57:33;;;;;;;1.40;1.30;;;17.50;99.90;;;;;;5055861;28;20971;-72
2023/08/27 05:00:04;;;;;;;1.53;1.40;;;17.50;99.90;;;;;;5059767;28;20478;-72
2023/08/27 05:02:31;;;;;;;1.57;1.10;;;17.20;99.90;;;;;;5030943;28;20458;-73
2023/08/27 05:04:56;;;;;;;1.63;1.53;;;16.90;99.90;;;;;;5030411;28;20593;-72
2023/08/27 05:07:22;;;;;;;1.50;1.40;;;17.00;99.90;;;;;;5029609;28;20223;-74
2023/08/27 05:09:48;;;;;;;1.60;1.50;;;17.10;99.90;;;;;;5029839;28;20798;-73
2023/08/27 05:12:14;;;;;;;2.27;1.43;;;17.20;99.90;;;;;;5030100;28;20216;-73
2023/08/27 05:14:40;;;;;;;1.50;1.40;;;17.20;99.90;;;;;;5061193;28;21164;-72
2023/08/27 05:17:06;;;;;;;1.80;1.57;;;17.30;99.90;;;;;;5062519;28;20254;-73
2023/08/27 05:19:33;;;;;;;1.60;1.50;;;17.40;99.90;;;;;;5040179;28;21257;-73
2023/08/27 05:22:01;;;;;;;7.13;2.10;;;17.50;99.90;;;;;;5024148;28;20462;-72
2023/08/27 05:24:26;;;;;;;1.37;1.27;;;17.50;99.90;;;;;;5028258;28;20219;-73
2023/08/27 05:26:52;;;;;;;1.77;1.20;;;17.60;99.90;;;;;;5047594;28;20477;-73
2023/08/27 05:29:20;;;;;;;1.33;1.30;;;17.60;99.90;;;;;;5047231;28;20474;-73
2023/08/27 05:31:45;;;;;;;1.53;1.40;;;17.60;99.90;;;;;;5041625;28;20493;-72
2023/08/27 05:34:11;;;;;;;2.77;2.00;;;17.60;99.90;;;;;;5057941;28;20267;-73
2023/08/27 05:36:37;;;;;;;1.60;1.50;;;17.60;99.90;;;;;;5028634;28;20227;-73
2023/08/27 05:39:05;;;;;;;1.47;1.37;;;17.60;99.90;;;;;;5060444;28;20231;-73
2023/08/27 05:41:31;;;;;;;1.30;1.20;;;17.60;99.90;;;;;;5027277;28;20453;-73
2023/08/27 05:43:57;;;;;;;1.50;1.40;;;17.60;99.90;;;;;;5029262;28;20470;-73
2023/08/27 05:46:22;;;;;;;1.50;1.40;;;17.60;99.90;;;;;;5029916;28;20223;-73
2023/08/27 05:48:48;;;;;;;1.30;1.30;;;17.60;99.90;;;;;;5030450;28;20250;-72
2023/08/27 05:51:14;;;;;;;3.03;1.60;;;17.60;99.90;;;;;;5044257;28;20347;-73
2023/08/27 05:53:40;;;;;;;1.27;1.20;;;17.60;99.90;;;;;;5025866;28;20227;-72
2023/08/27 05:56:05;;;;;;;1.53;1.43;;;17.60;99.90;;;;;;5027972;28;20342;-73
2023/08/27 05:58:31;;;;;;;2.13;1.80;;;17.50;99.90;;;;;;5041246;28;20239;-73
2023/08/27 06:00:57;;;;;;;1.60;1.50;;;17.50;99.90;;;;;;5028215;28;20298;-73
2023/08/27 06:03:23;;;;;;;4.30;1.60;;;17.50;99.90;;;;;;5041399;28;20303;-73
2023/08/27 06:05:49;;;;;;;1.70;1.60;;;17.50;99.90;;;;;;5007495;28;20494;-72
2023/08/27 06:08:14;;;;;;;3.03;1.70;;;17.50;99.90;;;;;;5045370;28;20798;-72
2023/08/27 06:10:40;;;;;;;1.80;1.53;;;17.50;99.90;;;;;;5012789;28;20216;-73
2023/08/27 06:13:07;;;;;;;1.73;1.63;;;17.50;99.90;;;;;;5044238;28;20325;-72
2023/08/27 06:15:37;;;;;;;1.57;1.47;;;17.60;99.90;;;;;;5029632;28;20485;-73
2023/08/27 06:18:07;;;;;;;2.63;1.70;;;17.50;99.90;;;;;;5012772;28;21163;-72
2023/08/27 06:20:34;;;;;;;1.80;1.70;;;17.60;99.90;;;;;;5042049;28;20466;-73
2023/08/27 06:23:01;;;;;;;1.63;1.37;;;17.50;99.90;;;;;;5028634;28;20454;-73
2023/08/27 06:25:26;;;;;;;1.60;1.50;;;17.50;99.90;;;;;;5044247;28;20489;-72
2023/08/27 06:27:55;;;;;;;2.20;1.63;;;17.50;99.90;;;;;;5025863;28;20549;-73
2023/08/27 06:30:22;;;;;;;4.20;1.50;;;17.50;99.90;;;;;;5041966;28;20457;-71
2023/08/27 06:32:49;;;;;;;3.07;2.10;;;17.50;99.90;;;;;;5027522;28;20469;-72
2023/08/27 06:35:14;;;;;;;1.93;1.70;;;17.40;99.90;;;;;;5031022;28;20457;-73
2023/08/27 06:37:40;;;;;;;2.00;1.80;;;17.20;99.90;;;;;;5032657;28;20223;-72
2023/08/27 06:40:07;;;;;;;1.87;1.40;;;17.30;99.90;;;;;;5032697;28;20224;-72
2023/08/27 06:42:33;;;;;;;2.73;2.37;;;17.30;99.90;;;;;;5046357;28;20462;-72
2023/08/27 06:45:00;;;;;;;1.73;1.63;;;17.40;99.90;;;;;;5032155;28;20534;-72
2023/08/27 06:47:25;;;;;;;2.10;1.90;;;17.40;99.90;;;;;;5018117;28;20482;-72
2023/08/27 06:49:51;;;;;;;2.33;1.53;;;17.50;99.90;;;;;;5032331;28;20478;-72
2023/08/27 06:52:20;;;;;;;2.67;2.03;;;17.60;99.90;;;;;;5030246;28;20242;-73
2023/08/27 06:54:46;;;;;;;2.10;1.73;;;17.60;99.90;;;;;;5031014;28;20230;-72
2023/08/27 06:57:11;;;;;;;3.90;1.70;;;17.60;99.90;;;;;;5033025;28;20509;-73
2023/08/27 06:59:37;;;;;;;2.00;1.70;;;17.60;99.90;;;;;;5045046;28;20297;-73
2023/08/27 07:02:03;;;;;;;1.50;1.40;;;17.60;99.90;;;;;;5033764;28;20297;-73
2023/08/27 07:04:29;;;;;;;1.90;1.80;;;17.60;99.90;;;;;;5033938;28;20773;-72
2023/08/27 07:06:55;;;;;;;2.00;1.83;;;17.70;99.90;;;;;;5033552;28;20474;-73
2023/08/27 07:09:25;;;;;;;1.57;1.47;;;17.70;99.90;;;;;;5032328;28;20305;-73
2023/08/27 07:11:52;;;;;;;1.73;1.63;;;17.70;99.90;;;;;;5064410;28;20500;-73
2023/08/27 07:14:17;;;;;;;2.07;1.87;;;17.70;99.90;;;;;;5015749;28;20489;-73
2023/08/27 07:16:43;;;;;;;1.40;1.30;;;17.70;99.90;;;;;;5045529;28;20595;-72
2023/08/27 07:19:09;;;;;;;2.60;1.67;;;17.70;99.90;;;;;;5031542;28;20327;-73
2023/08/27 07:21:35;;;;;;;2.93;1.60;;;17.70;99.90;;;;;;5033579;28;20335;-73
2023/08/27 07:24:00;;;;;;;1.77;1.67;;;17.70;99.90;;;;;;5015245;28;20224;-73
2023/08/27 07:26:27;;;;;;;1.50;1.40;;;17.70;99.90;;;;;;5048669;28;20220;-73
2023/08/27 07:28:52;;;;;;;2.20;1.40;;;17.70;99.90;;;;;;5015376;28;20503;-72
2023/08/27 07:31:18;;;;;;;2.70;1.70;;;17.70;99.90;;;;;;5032484;28;20957;-72
2023/08/27 07:33:44;;;;;;;2.00;1.80;;;17.70;99.90;;;;;;5014686;28;20223;-73
2023/08/27 07:36:10;;;;;;;2.93;2.10;;;17.70;99.90;;;;;;5016815;28;20220;-73
2023/08/27 07:38:40;;;;;;;3.67;1.73;;;17.60;99.90;;;;;;5014109;28;20263;-73
2023/08/27 07:41:06;;;;;;;2.13;1.90;;;17.70;99.90;;;;;;5045678;28;20231;-73
2023/08/27 07:43:32;;;;;;;1.60;1.50;;;17.60;99.90;;;;;;5062834;28;20449;-73
2023/08/27 07:45:57;;;;;;;1.70;1.60;;;17.70;99.90;;;;;;5015151;28;20224;-73
2023/08/27 07:48:23;;;;;;;1.83;1.73;;;17.70;99.90;;;;;;5046293;28;20227;-72
2023/08/27 07:50:50;;;;;;;1.70;1.60;;;17.70;99.90;;;;;;5028715;28;20224;-73
2023/08/27 07:53:16;;;;;;;2.13;1.40;;;17.70;99.90;;;;;;5034051;28;20270;-73
2023/08/27 07:55:41;;;;;;;2.73;1.60;;;17.80;99.90;;;;;;5061699;28;21069;-73
2023/08/27 07:58:07;;;;;;;1.53;1.43;;;17.80;99.90;;;;;;5046113;28;20251;-72
2023/08/27 08:00:33;;;;;;;1.90;1.80;;;17.90;99.90;;;;;;5028351;28;20228;-73
2023/08/27 08:02:59;;;;;;;5.00;1.90;;;17.90;99.90;;;;;;5014081;28;20481;-73
2023/08/27 08:05:25;;;;;;;1.70;1.60;;;17.90;99.90;;;;;;5063926;28;20327;-72
2023/08/27 08:07:50;;;;;;;1.67;1.57;;;17.90;99.90;;;;;;5055471;27;20263;-73
2023/08/27 08:10:16;;;;;;;1.40;1.30;;;17.90;99.90;;;;;;5043274;28;20223;-73
2023/08/27 08:12:43;;;;;;;2.00;1.87;;;17.90;99.90;;;;;;5031169;28;20251;-73
2023/08/27 08:15:09;;;;;;;1.37;1.27;;;17.90;99.90;;;;;;5030565;28;20477;-73
2023/08/27 08:17:35;;;;;;;7.10;2.00;;;18.00;99.90;;;;;;5026905;28;20481;-72
2023/08/27 08:20:03;;;;;;;3.33;3.03;;;18.00;99.90;;;;;;5028714;28;20523;-74
2023/08/27 08:22:28;;;;;;;2.73;2.50;;;18.00;99.90;;;;;;5025719;28;20223;-74
2023/08/27 08:24:55;;;;;;;2.33;2.13;;;18.00;99.90;;;;;;5057357;28;20596;-73
2023/08/27 08:27:21;;;;;;;1.80;1.70;;;18.00;99.90;;;;;;5027550;28;20220;-73
2023/08/27 08:29:47;;;;;;;1.90;1.70;;;18.10;99.90;;;;;;5010398;28;20501;-73
2023/08/27 08:32:13;;;;;;;1.70;1.60;;;18.10;99.90;;;;;;5028916;28;20482;-74
2023/08/27 08:34:39;;;;;;;1.80;1.70;;;18.10;99.90;;;;;;5043247;28;20223;-73
2023/08/27 08:37:05;;;;;;;4.10;1.53;;;18.20;99.90;;;;;;5028617;28;20224;-73
2023/08/27 08:39:31;;;;;;;2.20;1.87;;;18.20;99.90;;;;;;5025852;28;20484;-71
2023/08/27 08:42:37;;;;;;;2.23;1.90;;;18.30;99.90;;;;;;5026686;28;20230;-72
2023/08/27 08:45:26;;;;;;;2.90;2.07;;;18.30;99.90;;;;;;5011637;28;20297;-72
2023/08/27 08:47:53;;;;;;;2.67;2.47;;;18.40;99.90;;;;;;5028315;28;20614;-75
2023/08/27 08:50:21;;;;;;;3.43;1.70;;;18.40;99.90;;;;;;5041313;28;20510;-74
2023/08/27 08:52:49;;;;;;;1.87;1.70;;;18.40;99.90;;;;;;5029072;28;20470;-74
2023/08/27 08:55:16;;;;;;;1.93;1.73;;;18.50;99.90;;;;;;5029010;28;20477;-75
2023/08/27 08:58:08;;;;;;;2.00;1.60;;;18.40;99.90;;;;;;5058224;28;20859;-73
2023/08/27 09:00:34;;;;;;;1.70;1.60;;;18.50;99.90;;;;;;5026664;28;20589;-73
2023/08/27 09:03:01;;;;;;;1.90;1.63;;;18.60;99.90;;;;;;5028357;28;20470;-73
2023/08/27 09:05:28;;;;;;;1.67;1.57;;;18.60;99.90;;;;;;5039612;28;20486;-73
2023/08/27 09:07:54;;;;;;;2.03;1.70;;;18.70;99.90;;;;;;5008822;28;20494;-76
2023/08/27 09:10:22;;;;;;;3.50;1.70;;;18.80;99.90;;;;;;5026992;28;20836;-73
2023/08/27 09:12:49;;;;;;;1.50;1.40;;;18.80;99.90;;;;;;5039903;28;20231;-74
2023/08/27 09:15:15;;;;;;;2.20;1.97;;;18.90;99.90;;;;;;5038961;28;20533;-73
2023/08/27 09:17:40;;;;;;;1.80;1.70;;;19.10;99.90;;;;;;5028865;28;20922;-74
2023/08/27 09:20:07;;;;;;;2.07;1.70;;;19.10;99.90;;;;;;5039482;28;20297;-74
2023/08/27 09:22:35;;;;;;;2.50;2.30;;;19.10;99.90;;;;;;5044777;28;20220;-73
2023/08/27 09:25:05;;;;;;;4.23;2.60;;;19.20;99.90;;;;;;5027737;28;20498;-73
2023/08/27 09:27:32;;;;;;;2.20;2.00;;;19.20;99.90;;;;;;5027656;28;20450;-73
2023/08/27 09:30:00;;;;;;;2.03;1.83;;;19.30;99.90;;;;;;5035318;28;20478;-74
2023/08/27 09:32:26;;;;;;;2.10;1.90;;;19.40;99.90;;;;;;5025858;28;21003;-72
2023/08/27 09:34:58;;;;;;;2.17;1.90;;;19.40;99.90;;;;;;5056447;28;20573;-73
2023/08/27 09:37:36;;;;;;;1.97;1.80;;;19.40;99.90;;;;;;5039509;28;20497;-73
2023/08/27 09:40:05;;;;;;;3.30;2.93;;;19.50;99.90;;;;;;5009288;28;20532;-73
2023/08/27 09:42:32;;;;;;;2.80;2.50;;;19.70;99.90;;;;;;5022938;28;20482;-73
2023/08/27 09:44:58;;;;;;;3.20;2.53;;;19.80;99.90;;;;;;5056879;28;20584;-73
2023/08/27 09:47:35;;;;;;;3.20;2.10;;;20.00;99.90;;;;;;5056937;28;21071;-74
2023/08/27 09:50:06;;;;;;;3.57;2.63;;;20.20;99.90;;;;;;5038988;28;20852;-73
2023/08/27 09:52:33;;;;;;;2.20;2.00;;;20.40;99.90;;;;;;5025141;28;21072;-74
2023/08/27 09:54:58;;;;;;;2.27;2.07;;;20.50;99.90;;;;;;5055619;28;20512;-73
2023/08/27 09:57:24;;;;;;;4.53;2.47;;;20.60;99.90;;;;;;5056386;28;20957;-74
2023/08/27 09:59:52;;;;;;;2.53;2.33;;;20.80;99.90;;;;;;5025613;28;20851;-73
2023/08/27 10:02:19;;;;;;;3.70;2.30;;;20.90;99.90;;;;;;5024469;28;20304;-73
2023/08/27 10:04:56;;;;;;;3.70;2.60;;;21.20;99.90;;;;;;5055848;28;21010;-73
2023/08/27 10:07:23;;;;;;;2.30;2.20;;;21.30;99.90;;;;;;5040834;28;20510;-73
2023/08/27 10:09:53;;;;;;;2.43;2.20;;;21.50;99.90;;;;;;5027621;28;20606;-74
2023/08/27 10:12:20;;;;;;;2.57;2.27;;;21.40;99.90;;;;;;5030309;28;20474;-74
2023/08/27 10:14:47;;;;;;;6.87;2.27;;;21.30;99.90;;;;;;5030075;28;20465;-74
2023/08/27 10:17:14;;;;;;;2.80;2.47;;;21.50;99.90;;;;;;5042497;28;20469;-74
2023/08/27 10:19:40;;;;;;;2.40;2.20;;;21.70;99.90;;;;;;5026815;28;20856;-74
2023/08/27 10:22:06;;;;;;;2.00;1.90;;;21.90;99.90;;;;;;5047727;28;20529;-74
2023/08/27 10:24:33;;;;;;;2.40;1.97;;;21.90;99.90;;;;;;5028832;28;20469;-74
2023/08/27 10:27:06;;;;;;;2.50;2.30;;;22.10;99.90;;;;;;5030288;28;20477;-73
2023/08/27 10:29:34;;;;;;;3.80;2.20;;;22.30;99.90;;;;;;5028705;28;20533;-74
2023/08/27 10:32:00;;;;;;;2.37;2.10;;;22.70;99.90;;;;;;5044460;28;20472;-73
2023/08/27 10:34:30;;;;;;;2.20;2.10;;;22.70;99.90;;;;;;5028378;28;20623;-74
2023/08/27 10:37:01;;;;;;;2.27;2.17;;;22.60;99.90;;;;;;5029977;28;20227;-74
2023/08/27 10:39:31;;;;;;;4.63;2.50;;;22.70;99.90;;;;;;5059596;28;20481;-73
2023/08/27 10:41:57;;;;;;;2.30;2.10;;;22.70;99.90;;;;;;5031195;28;20498;-74
2023/08/27 10:44:23;;;;;;;2.03;1.90;;;22.70;99.90;;;;;;5031459;28;20469;-74
2023/08/27 10:47:15;;;;;;;2.60;2.40;;;22.70;99.90;;;;;;5028657;28;20219;-73
2023/08/27 10:49:45;;;;;;;1.97;1.87;;;22.70;99.90;;;;;;5030829;28;20384;-73
2023/08/27 10:52:18;;;;;;;2.00;1.90;;;22.80;99.90;;;;;;5031140;28;20480;-74
2023/08/27 10:54:57;;;;;;;2.90;2.40;;;22.80;99.90;;;;;;5013850;28;21073;-74
2023/08/27 10:57:23;;;;;;;2.00;1.90;;;22.80;99.90;;;;;;5014213;28;21316;-74
2023/08/27 10:59:51;;;;;;;3.20;2.37;;;22.80;99.90;;;;;;5028395;28;21341;-74
2023/08/27 11:02:17;;;;;;;2.83;1.83;;;22.70;99.90;;;;;;5027400;28;20650;-73
2023/08/27 11:04:53;;;;;;;2.70;2.50;;;22.70;99.90;;;;;;5033384;28;20529;-73
2023/08/27 11:07:22;;;;;;;2.67;2.20;;;22.70;99.90;;;;;;5031273;28;20227;-73
2023/08/27 11:09:49;;;;;;;7.23;2.60;;;22.70;99.90;;;;;;5042829;28;21276;-74
2023/08/27 11:12:36;;;;;;;2.53;2.10;;;22.70;99.90;;;;;;5045088;28;20478;-74
2023/08/27 11:15:14;;;;;;;2.33;2.13;;;22.70;99.90;;;;;;5043393;28;20489;-74
2023/08/27 11:17:40;;;;;;;2.10;2.00;;;22.70;99.90;;;;;;5031987;28;21128;-73
2023/08/27 11:20:25;;;;;;;2.20;2.00;;;22.70;99.90;;;;;;5040753;28;20507;-74
2023/08/27 11:22:58;;;;;;;3.33;2.40;;;22.70;99.90;;;;;;5043583;28;20580;-73
2023/08/27 11:25:31;;;;;;;3.60;2.57;;;22.70;99.90;;;;;;5027371;28;21013;-74
2023/08/27 11:28:02;;;;;;;2.00;1.90;;;22.80;99.90;;;;;;5029063;28;20524;-74
2023/08/27 11:30:28;;;;;;;2.73;2.10;;;22.90;99.90;;;;;;5043764;28;20598;-73
2023/08/27 11:32:54;;;;;;;2.50;2.30;;;22.90;99.90;;;;;;5026779;28;20874;-73
2023/08/27 11:35:27;;;;;;;2.17;1.97;;;22.90;99.90;;;;;;5029785;28;20215;-73
2023/08/27 11:37:53;;;;;;;2.40;2.20;;;22.90;99.90;;;;;;5058991;28;20474;-75
2023/08/27 11:40:19;;;;;;;2.87;2.50;;;22.90;99.90;;;;;;5057760;28;20590;-74
2023/08/27 11:42:52;;;;;;;2.73;2.37;;;22.90;99.90;;;;;;5027898;28;20536;-74
2023/08/27 11:45:29;;;;;;;2.43;2.10;;;22.80;99.90;;;;;;5043750;28;20599;-74
2023/08/27 11:47:55;;;;;;;2.40;2.20;;;22.80;99.90;;;;;;5027962;28;20485;-74
2023/08/27 11:50:21;;;;;;;2.20;1.70;;;22.80;99.90;;;;;;5040647;28;21075;-74
2023/08/27 11:52:47;;;;;;;3.37;2.43;;;22.80;99.90;;;;;;5044176;28;20470;-74
2023/08/27 11:55:13;;;;;;;2.17;2.07;;;22.80;99.90;;;;;;5029241;28;20883;-74
2023/08/27 11:57:39;;;;;;;3.43;2.10;;;22.80;99.90;;;;;;5031037;28;20353;-73
2023/08/27 12:00:11;;;;;;;1.90;1.80;;;22.90;99.90;;;;;;5058576;28;20485;-74
2023/08/27 12:02:38;;;;;;;3.10;1.90;;;22.50;99.90;;;;;;5055697;28;20473;-74
2023/08/27 12:05:08;;;;;;;2.20;1.77;;;22.30;99.90;;;;;;5044763;28;20543;-74
2023/08/27 12:07:35;;;;;;;2.10;1.90;;;22.10;99.90;;;;;;5057712;28;21128;-74
2023/08/27 12:10:08;;;;;;;1.67;1.57;;;22.10;99.90;;;;;;5028393;28;20924;-73
2023/08/27 12:12:39;;;;;;;2.27;2.03;;;22.00;99.90;;;;;;5057205;28;21082;-74
2023/08/27 12:15:05;;;;;;;1.97;1.80;;;21.90;99.90;;;;;;5031805;28;20473;-74
2023/08/27 12:17:35;;;;;;;1.80;1.70;;;22.00;99.90;;;;;;5045397;28;21041;-73
2023/08/27 12:20:05;;;;;;;2.83;1.97;;;22.00;99.90;;;;;;5029118;28;20489;-74
2023/08/27 12:22:40;;;;;;;2.67;2.10;;;22.00;99.90;;;;;;5029082;28;20477;-73
2023/08/27 12:25:06;;;;;;;1.80;1.70;;;22.00;99.90;;;;;;5029257;28;20477;-74
2023/08/27 12:27:32;;;;;;;2.17;1.97;;;22.10;99.90;;;;;;5027738;28;20462;-74
2023/08/27 12:29:57;;;;;;;2.47;2.27;;;22.10;99.90;;;;;;5027975;28;21119;-74
2023/08/27 12:32:30;;;;;;;1.93;1.83;;;22.20;99.90;;;;;;5044114;28;20251;-74
2023/08/27 12:34:55;;;;;;;3.40;2.30;;;22.20;99.90;;;;;;5058348;28;20226;-74
2023/08/27 12:37:22;;;;;;;1.70;1.60;;;22.20;99.90;;;;;;5042144;28;20470;-75
2023/08/27 12:39:48;;;;;;;2.90;1.90;;;22.20;99.90;;;;;;5045730;28;20236;-74
2023/08/27 12:42:15;;;;;;;1.80;1.70;;;22.20;99.90;;;;;;5029746;28;20589;-73
2023/08/27 12:44:41;;;;;;;1.87;1.73;;;22.20;99.90;;;;;;5061311;28;20227;-74
2023/08/27 12:47:08;;;;;;;1.50;1.40;;;22.30;99.90;;;;;;5042925;28;20481;-73
2023/08/27 12:49:34;;;;;;;1.30;1.20;;;22.30;99.90;;;;;;5045100;28;21098;-74